sensor_id;sensor_type;location;lat;lon;timestamp;P1;durP1;ratioP1;P2;durP2;ratioP2
73729;SDS011;62036;48.128;16.458;2022-12-01T00:02:12;43.13;;;14.75;;
73729;SDS011;62036;48.128;16.458;2022-12-01T00:04:38;40.75;;;15.40;;
73729;SDS011;62036;48.128;16.458;2022-12-01T00:07:04;37.00;;;13.80;;
73729;SDS011;62036;48.128;16.458;2022-12-01T00:09:30;40.00;;;13.18;;
73729;SDS011;62036;48.128;16.458;2022-12-01T00:12:15;35.60;;;14.75;;
73729;SDS011;62036;48.128;16.458;2022-12-01T00:14:41;44.63;;;15.18;;
73729;SDS011;62036;48.128;16.458;2022-12-01T00:17:07;40.58;;;15.18;;
73729;SDS011;62036;48.128;16.458;2022-12-01T00:19:33;43.03;;;16.00;;
73729;SDS011;62036;48.128;16.458;2022-12-01T00:21:59;39.90;;;14.75;;
73729;SDS011;62036;48.128;16.458;2022-12-01T00:24:25;40.83;;;14.60;;
73729;SDS011;62036;48.128;16.458;2022-12-01T00:26:51;40.03;;;15.70;;
73729;SDS011;62036;48.128;16.458;2022-12-01T00:29:17;43.72;;;15.63;;
73729;SDS011;62036;48.128;16.458;2022-12-01T00:31:43;41.13;;;15.48;;
73729;SDS011;62036;48.128;16.458;2022-12-01T00:34:12;40.05;;;14.75;;
73729;SDS011;62036;48.128;16.458;2022-12-01T00:36:45;35.20;;;13.55;;
73729;SDS011;62036;48.128;16.458;2022-12-01T00:39:11;44.05;;;16.13;;
73729;SDS011;62036;48.128;16.458;2022-12-01T00:44:03;40.40;;;14.82;;
73729;SDS011;62036;48.128;16.458;2022-12-01T00:46:29;43.78;;;15.80;;
73729;SDS011;62036;48.128;16.458;2022-12-01T00:51:21;38.38;;;14.18;;
73729;SDS011;62036;48.128;16.458;2022-12-01T00:53:48;35.10;;;14.02;;
73729;SDS011;62036;48.128;16.458;2022-12-01T00:58:40;38.72;;;13.85;;
73729;SDS011;62036;48.128;16.458;2022-12-01T01:03:32;42.80;;;15.10;;
73729;SDS011;62036;48.128;16.458;2022-12-01T01:06:08;35.67;;;13.60;;
73729;SDS011;62036;48.128;16.458;2022-12-01T01:08:35;40.78;;;14.70;;
73729;SDS011;62036;48.128;16.458;2022-12-01T01:11:01;41.42;;;14.70;;
73729;SDS011;62036;48.128;16.458;2022-12-01T01:13:27;45.28;;;15.85;;
73729;SDS011;62036;48.128;16.458;2022-12-01T01:15:57;38.25;;;14.10;;
73729;SDS011;62036;48.128;16.458;2022-12-01T01:18:23;44.13;;;14.60;;
73729;SDS011;62036;48.128;16.458;2022-12-01T01:20:56;41.95;;;14.88;;
73729;SDS011;62036;48.128;16.458;2022-12-01T01:23:23;38.78;;;14.40;;
73729;SDS011;62036;48.128;16.458;2022-12-01T01:25:49;41.00;;;14.80;;
73729;SDS011;62036;48.128;16.458;2022-12-01T01:30:41;41.33;;;15.07;;
73729;SDS011;62036;48.128;16.458;2022-12-01T01:33:07;44.40;;;14.93;;
73729;SDS011;62036;48.128;16.458;2022-12-01T01:35:33;41.42;;;14.40;;
73729;SDS011;62036;48.128;16.458;2022-12-01T01:37:59;38.47;;;13.77;;
73729;SDS011;62036;48.128;16.458;2022-12-01T01:40:25;41.05;;;14.60;;
73729;SDS011;62036;48.128;16.458;2022-12-01T01:45:24;40.38;;;13.30;;
73729;SDS011;62036;48.128;16.458;2022-12-01T01:47:50;36.58;;;14.80;;
73729;SDS011;62036;48.128;16.458;2022-12-01T01:50:17;44.80;;;15.88;;
73729;SDS011;62036;48.128;16.458;2022-12-01T01:52:45;43.35;;;15.35;;
73729;SDS011;62036;48.128;16.458;2022-12-01T01:55:13;44.90;;;15.32;;
73729;SDS011;62036;48.128;16.458;2022-12-01T01:57:39;43.30;;;14.88;;
73729;SDS011;62036;48.128;16.458;2022-12-01T02:00:07;42.60;;;14.32;;
73729;SDS011;62036;48.128;16.458;2022-12-01T02:02:35;45.22;;;15.15;;
73729;SDS011;62036;48.128;16.458;2022-12-01T02:05:04;41.03;;;15.82;;
73729;SDS011;62036;48.128;16.458;2022-12-01T02:07:35;37.58;;;13.57;;
73729;SDS011;62036;48.128;16.458;2022-12-01T02:10:01;44.10;;;14.80;;
73729;SDS011;62036;48.128;16.458;2022-12-01T02:17:46;46.05;;;15.15;;
73729;SDS011;62036;48.128;16.458;2022-12-01T02:30:55;40.50;;;14.73;;
73729;SDS011;62036;48.128;16.458;2022-12-01T02:33:28;40.03;;;15.93;;
73729;SDS011;62036;48.128;16.458;2022-12-01T02:36:20;37.42;;;14.25;;
73729;SDS011;62036;48.128;16.458;2022-12-01T02:41:17;39.92;;;13.65;;
73729;SDS011;62036;48.128;16.458;2022-12-01T02:43:51;46.55;;;15.20;;
73729;SDS011;62036;48.128;16.458;2022-12-01T02:49:05;40.63;;;13.65;;
73729;SDS011;62036;48.128;16.458;2022-12-01T02:51:32;33.45;;;13.80;;
73729;SDS011;62036;48.128;16.458;2022-12-01T02:54:00;41.15;;;14.93;;
73729;SDS011;62036;48.128;16.458;2022-12-01T02:56:27;42.20;;;14.57;;
73729;SDS011;62036;48.128;16.458;2022-12-01T03:14:36;36.22;;;12.23;;
73729;SDS011;62036;48.128;16.458;2022-12-01T03:17:06;44.05;;;14.68;;
73729;SDS011;62036;48.128;16.458;2022-12-01T03:19:39;44.45;;;14.00;;
73729;SDS011;62036;48.128;16.458;2022-12-01T03:22:09;46.67;;;15.43;;
73729;SDS011;62036;48.128;16.458;2022-12-01T03:24:36;40.15;;;14.32;;
73729;SDS011;62036;48.128;16.458;2022-12-01T03:27:03;46.90;;;14.70;;
73729;SDS011;62036;48.128;16.458;2022-12-01T03:29:35;42.28;;;15.25;;
73729;SDS011;62036;48.128;16.458;2022-12-01T03:32:14;40.63;;;14.52;;
73729;SDS011;62036;48.128;16.458;2022-12-01T03:34:43;41.80;;;15.45;;
73729;SDS011;62036;48.128;16.458;2022-12-01T03:37:12;40.50;;;15.00;;
73729;SDS011;62036;48.128;16.458;2022-12-01T03:39:42;44.35;;;15.32;;
73729;SDS011;62036;48.128;16.458;2022-12-01T03:42:27;45.00;;;16.00;;
73729;SDS011;62036;48.128;16.458;2022-12-01T03:44:55;43.75;;;15.70;;
73729;SDS011;62036;48.128;16.458;2022-12-01T03:47:27;38.33;;;13.68;;
73729;SDS011;62036;48.128;16.458;2022-12-01T03:49:56;42.63;;;15.77;;
73729;SDS011;62036;48.128;16.458;2022-12-01T03:52:46;37.47;;;13.32;;
73729;SDS011;62036;48.128;16.458;2022-12-01T03:55:12;39.47;;;14.07;;
73729;SDS011;62036;48.128;16.458;2022-12-01T03:57:43;38.38;;;13.93;;
73729;SDS011;62036;48.128;16.458;2022-12-01T04:00:11;43.10;;;14.23;;
73729;SDS011;62036;48.128;16.458;2022-12-01T04:02:38;47.08;;;15.60;;
73729;SDS011;62036;48.128;16.458;2022-12-01T04:05:04;41.35;;;15.40;;
73729;SDS011;62036;48.128;16.458;2022-12-01T04:07:30;40.67;;;14.95;;
73729;SDS011;62036;48.128;16.458;2022-12-01T04:12:22;40.40;;;13.90;;
73729;SDS011;62036;48.128;16.458;2022-12-01T04:14:55;41.78;;;13.80;;
73729;SDS011;62036;48.128;16.458;2022-12-01T04:17:21;38.85;;;15.05;;
73729;SDS011;62036;48.128;16.458;2022-12-01T04:19:47;41.85;;;14.95;;
73729;SDS011;62036;48.128;16.458;2022-12-01T04:22:13;47.20;;;15.70;;
73729;SDS011;62036;48.128;16.458;2022-12-01T04:24:39;39.58;;;13.60;;
73729;SDS011;62036;48.128;16.458;2022-12-01T04:27:05;48.70;;;15.65;;
73729;SDS011;62036;48.128;16.458;2022-12-01T04:29:31;41.70;;;14.52;;
73729;SDS011;62036;48.128;16.458;2022-12-01T04:31:57;39.55;;;14.52;;
73729;SDS011;62036;48.128;16.458;2022-12-01T04:34:23;40.88;;;15.20;;
73729;SDS011;62036;48.128;16.458;2022-12-01T04:36:49;41.60;;;15.40;;
73729;SDS011;62036;48.128;16.458;2022-12-01T04:39:15;38.97;;;14.10;;
73729;SDS011;62036;48.128;16.458;2022-12-01T04:41:41;41.25;;;15.88;;
73729;SDS011;62036;48.128;16.458;2022-12-01T04:44:10;44.70;;;16.08;;
73729;SDS011;62036;48.128;16.458;2022-12-01T04:46:36;40.47;;;14.45;;
73729;SDS011;62036;48.128;16.458;2022-12-01T04:49:03;45.30;;;14.55;;
73729;SDS011;62036;48.128;16.458;2022-12-01T04:51:29;47.17;;;14.95;;
73729;SDS011;62036;48.128;16.458;2022-12-01T04:53:55;45.03;;;16.45;;
73729;SDS011;62036;48.128;16.458;2022-12-01T04:56:21;42.10;;;15.07;;
73729;SDS011;62036;48.128;16.458;2022-12-01T04:58:47;41.92;;;16.05;;
73729;SDS011;62036;48.128;16.458;2022-12-01T05:01:14;45.97;;;14.98;;
73729;SDS011;62036;48.128;16.458;2022-12-01T05:03:41;42.63;;;15.77;;
73729;SDS011;62036;48.128;16.458;2022-12-01T05:06:16;36.15;;;14.20;;
73729;SDS011;62036;48.128;16.458;2022-12-01T05:08:42;37.05;;;13.75;;
73729;SDS011;62036;48.128;16.458;2022-12-01T05:11:09;40.45;;;15.07;;
73729;SDS011;62036;48.128;16.458;2022-12-01T05:13:36;39.13;;;14.63;;
73729;SDS011;62036;48.128;16.458;2022-12-01T05:16:07;45.70;;;15.95;;
73729;SDS011;62036;48.128;16.458;2022-12-01T05:18:34;45.45;;;15.02;;
73729;SDS011;62036;48.128;16.458;2022-12-01T05:21:00;35.50;;;12.55;;
73729;SDS011;62036;48.128;16.458;2022-12-01T05:23:28;43.83;;;15.30;;
73729;SDS011;62036;48.128;16.458;2022-12-01T05:25:55;45.67;;;15.45;;
73729;SDS011;62036;48.128;16.458;2022-12-01T05:30:47;39.22;;;13.48;;
73729;SDS011;62036;48.128;16.458;2022-12-01T05:33:13;40.80;;;15.02;;
73729;SDS011;62036;48.128;16.458;2022-12-01T05:38:05;40.60;;;14.57;;
73729;SDS011;62036;48.128;16.458;2022-12-01T05:40:32;41.17;;;15.65;;
73729;SDS011;62036;48.128;16.458;2022-12-01T05:42:58;40.05;;;14.43;;
73729;SDS011;62036;48.128;16.458;2022-12-01T05:47:53;35.00;;;14.15;;
73729;SDS011;62036;48.128;16.458;2022-12-01T05:50:19;48.95;;;17.05;;
73729;SDS011;62036;48.128;16.458;2022-12-01T05:52:45;45.70;;;17.95;;
73729;SDS011;62036;48.128;16.458;2022-12-01T05:57:37;44.97;;;15.02;;
73729;SDS011;62036;48.128;16.458;2022-12-01T06:00:04;40.65;;;13.85;;
73729;SDS011;62036;48.128;16.458;2022-12-01T06:02:30;49.28;;;15.70;;
73729;SDS011;62036;48.128;16.458;2022-12-01T06:07:22;41.30;;;14.77;;
73729;SDS011;62036;48.128;16.458;2022-12-01T06:09:49;49.60;;;17.55;;
73729;SDS011;62036;48.128;16.458;2022-12-01T06:12:16;42.88;;;16.58;;
73729;SDS011;62036;48.128;16.458;2022-12-01T06:17:07;38.50;;;14.27;;
73729;SDS011;62036;48.128;16.458;2022-12-01T06:21:59;41.13;;;13.65;;
73729;SDS011;62036;48.128;16.458;2022-12-01T06:26:51;44.50;;;15.50;;
73729;SDS011;62036;48.128;16.458;2022-12-01T06:29:17;41.75;;;15.35;;
73729;SDS011;62036;48.128;16.458;2022-12-01T06:34:09;35.03;;;14.07;;
73729;SDS011;62036;48.128;16.458;2022-12-01T06:36:35;41.55;;;14.50;;
73729;SDS011;62036;48.128;16.458;2022-12-01T06:41:27;48.22;;;14.70;;
73729;SDS011;62036;48.128;16.458;2022-12-01T06:46:19;37.78;;;13.68;;
73729;SDS011;62036;48.128;16.458;2022-12-01T06:51:11;33.50;;;13.88;;
73729;SDS011;62036;48.128;16.458;2022-12-01T06:53:37;44.35;;;15.05;;
73729;SDS011;62036;48.128;16.458;2022-12-01T06:58:28;35.15;;;12.95;;
73729;SDS011;62036;48.128;16.458;2022-12-01T07:00:55;45.40;;;18.10;;
73729;SDS011;62036;48.128;16.458;2022-12-01T07:03:22;39.50;;;14.70;;
73729;SDS011;62036;48.128;16.458;2022-12-01T07:08:14;35.42;;;11.60;;
73729;SDS011;62036;48.128;16.458;2022-12-01T07:10:40;44.95;;;17.33;;
73729;SDS011;62036;48.128;16.458;2022-12-01T07:15:32;37.83;;;15.18;;
73729;SDS011;62036;48.128;16.458;2022-12-01T07:20:24;39.95;;;13.45;;
73729;SDS011;62036;48.128;16.458;2022-12-01T07:25:16;52.15;;;15.98;;
73729;SDS011;62036;48.128;16.458;2022-12-01T07:30:07;41.33;;;12.73;;
73729;SDS011;62036;48.128;16.458;2022-12-01T07:32:34;37.78;;;15.55;;
73729;SDS011;62036;48.128;16.458;2022-12-01T07:37:25;48.00;;;15.02;;
73729;SDS011;62036;48.128;16.458;2022-12-01T07:39:51;43.53;;;16.83;;
73729;SDS011;62036;48.128;16.458;2022-12-01T07:44:43;44.38;;;15.88;;
73729;SDS011;62036;48.128;16.458;2022-12-01T07:49:35;45.38;;;14.57;;
73729;SDS011;62036;48.128;16.458;2022-12-01T07:52:01;45.53;;;14.20;;
73729;SDS011;62036;48.128;16.458;2022-12-01T07:54:27;44.28;;;16.48;;
73729;SDS011;62036;48.128;16.458;2022-12-01T07:56:53;43.42;;;15.88;;
73729;SDS011;62036;48.128;16.458;2022-12-01T07:59:19;44.53;;;15.85;;
73729;SDS011;62036;48.128;16.458;2022-12-01T08:01:45;43.60;;;15.25;;
73729;SDS011;62036;48.128;16.458;2022-12-01T08:04:11;40.05;;;14.75;;
73729;SDS011;62036;48.128;16.458;2022-12-01T08:06:37;42.60;;;14.90;;
73729;SDS011;62036;48.128;16.458;2022-12-01T08:09:03;44.10;;;15.52;;
73729;SDS011;62036;48.128;16.458;2022-12-01T08:11:30;42.88;;;16.27;;
73729;SDS011;62036;48.128;16.458;2022-12-01T08:13:56;45.90;;;15.60;;
73729;SDS011;62036;48.128;16.458;2022-12-01T08:16:22;48.00;;;16.02;;
73729;SDS011;62036;48.128;16.458;2022-12-01T08:18:49;46.17;;;16.50;;
73729;SDS011;62036;48.128;16.458;2022-12-01T08:21:16;49.63;;;18.08;;
73729;SDS011;62036;48.128;16.458;2022-12-01T08:23:43;46.92;;;16.83;;
73729;SDS011;62036;48.128;16.458;2022-12-01T08:26:16;43.72;;;15.48;;
73729;SDS011;62036;48.128;16.458;2022-12-01T08:28:42;44.50;;;16.88;;
73729;SDS011;62036;48.128;16.458;2022-12-01T08:31:09;42.85;;;14.98;;
73729;SDS011;62036;48.128;16.458;2022-12-01T08:33:36;44.80;;;16.58;;
73729;SDS011;62036;48.128;16.458;2022-12-01T08:36:02;39.75;;;14.60;;
73729;SDS011;62036;48.128;16.458;2022-12-01T08:38:30;45.63;;;16.40;;
73729;SDS011;62036;48.128;16.458;2022-12-01T08:41:00;42.25;;;16.58;;
73729;SDS011;62036;48.128;16.458;2022-12-01T08:43:26;45.53;;;16.45;;
73729;SDS011;62036;48.128;16.458;2022-12-01T08:45:52;42.95;;;14.90;;
73729;SDS011;62036;48.128;16.458;2022-12-01T08:48:18;41.80;;;14.98;;
73729;SDS011;62036;48.128;16.458;2022-12-01T08:50:44;43.05;;;16.42;;
73729;SDS011;62036;48.128;16.458;2022-12-01T08:53:10;44.20;;;17.60;;
73729;SDS011;62036;48.128;16.458;2022-12-01T08:55:36;38.60;;;15.75;;
73729;SDS011;62036;48.128;16.458;2022-12-01T08:58:02;44.10;;;15.73;;
73729;SDS011;62036;48.128;16.458;2022-12-01T09:00:28;44.20;;;15.70;;
73729;SDS011;62036;48.128;16.458;2022-12-01T09:02:54;45.92;;;15.65;;
73729;SDS011;62036;48.128;16.458;2022-12-01T09:05:20;44.85;;;16.13;;
73729;SDS011;62036;48.128;16.458;2022-12-01T09:07:46;42.90;;;16.60;;
73729;SDS011;62036;48.128;16.458;2022-12-01T09:10:32;50.83;;;17.55;;
73729;SDS011;62036;48.128;16.458;2022-12-01T09:12:58;45.47;;;15.75;;
73729;SDS011;62036;48.128;16.458;2022-12-01T09:15:24;48.70;;;16.85;;
73729;SDS011;62036;48.128;16.458;2022-12-01T09:17:50;46.72;;;16.55;;
73729;SDS011;62036;48.128;16.458;2022-12-01T09:20:16;43.00;;;16.55;;
73729;SDS011;62036;48.128;16.458;2022-12-01T09:22:42;37.95;;;14.30;;
73729;SDS011;62036;48.128;16.458;2022-12-01T09:25:08;47.72;;;16.10;;
73729;SDS011;62036;48.128;16.458;2022-12-01T09:27:38;44.67;;;15.93;;
73729;SDS011;62036;48.128;16.458;2022-12-01T09:30:05;46.00;;;15.98;;
73729;SDS011;62036;48.128;16.458;2022-12-01T09:32:31;44.15;;;16.73;;
73729;SDS011;62036;48.128;16.458;2022-12-01T09:34:57;41.28;;;14.50;;
73729;SDS011;62036;48.128;16.458;2022-12-01T09:37:23;45.47;;;16.08;;
73729;SDS011;62036;48.128;16.458;2022-12-01T09:39:49;44.25;;;16.23;;
73729;SDS011;62036;48.128;16.458;2022-12-01T09:42:15;42.15;;;14.20;;
73729;SDS011;62036;48.128;16.458;2022-12-01T09:44:44;47.75;;;15.02;;
73729;SDS011;62036;48.128;16.458;2022-12-01T09:49:51;46.65;;;16.25;;
73729;SDS011;62036;48.128;16.458;2022-12-01T09:52:19;46.58;;;16.33;;
73729;SDS011;62036;48.128;16.458;2022-12-01T09:54:46;44.58;;;17.67;;
73729;SDS011;62036;48.128;16.458;2022-12-01T09:57:27;52.28;;;17.17;;
73729;SDS011;62036;48.128;16.458;2022-12-01T09:59:54;40.40;;;16.35;;
73729;SDS011;62036;48.128;16.458;2022-12-01T10:07:39;43.13;;;15.25;;
73729;SDS011;62036;48.128;16.458;2022-12-01T10:10:12;47.15;;;15.98;;
73729;SDS011;62036;48.128;16.458;2022-12-01T10:12:40;38.70;;;14.88;;
73729;SDS011;62036;48.128;16.458;2022-12-01T10:18:19;43.55;;;16.13;;
73729;SDS011;62036;48.128;16.458;2022-12-01T10:25:39;40.83;;;15.68;;
73729;SDS011;62036;48.128;16.458;2022-12-01T10:28:12;46.08;;;16.85;;
73729;SDS011;62036;48.128;16.458;2022-12-01T10:30:51;47.10;;;16.83;;
73729;SDS011;62036;48.128;16.458;2022-12-01T10:33:32;43.85;;;15.25;;
73729;SDS011;62036;48.128;16.458;2022-12-01T10:36:00;48.22;;;16.95;;
73729;SDS011;62036;48.128;16.458;2022-12-01T10:38:27;40.38;;;16.00;;
73729;SDS011;62036;48.128;16.458;2022-12-01T10:40:54;49.08;;;18.08;;
73729;SDS011;62036;48.128;16.458;2022-12-01T10:43:32;47.42;;;17.92;;
73729;SDS011;62036;48.128;16.458;2022-12-01T10:46:00;42.05;;;15.02;;
73729;SDS011;62036;48.128;16.458;2022-12-01T10:48:30;41.22;;;16.23;;
73729;SDS011;62036;48.128;16.458;2022-12-01T10:51:12;42.65;;;15.32;;
73729;SDS011;62036;48.128;16.458;2022-12-01T10:53:38;41.13;;;14.50;;
73729;SDS011;62036;48.128;16.458;2022-12-01T10:56:38;42.55;;;15.40;;
73729;SDS011;62036;48.128;16.458;2022-12-01T10:58:57;38.95;;;14.23;;
73729;SDS011;62036;48.128;16.458;2022-12-01T11:01:28;46.35;;;15.00;;
73729;SDS011;62036;48.128;16.458;2022-12-01T11:06:47;43.75;;;15.20;;
73729;SDS011;62036;48.128;16.458;2022-12-01T11:09:18;39.50;;;16.15;;
73729;SDS011;62036;48.128;16.458;2022-12-01T11:11:44;43.65;;;16.23;;
73729;SDS011;62036;48.128;16.458;2022-12-01T11:14:16;38.53;;;15.43;;
73729;SDS011;62036;48.128;16.458;2022-12-01T11:16:44;36.90;;;14.82;;
73729;SDS011;62036;48.128;16.458;2022-12-01T11:21:49;42.80;;;15.25;;
73729;SDS011;62036;48.128;16.458;2022-12-01T11:24:39;38.78;;;14.27;;
73729;SDS011;62036;48.128;16.458;2022-12-01T11:27:15;44.38;;;14.75;;
73729;SDS011;62036;48.128;16.458;2022-12-01T11:29:41;40.30;;;14.95;;
73729;SDS011;62036;48.128;16.458;2022-12-01T11:32:14;42.42;;;16.20;;
73729;SDS011;62036;48.128;16.458;2022-12-01T11:34:45;42.88;;;16.77;;
73729;SDS011;62036;48.128;16.458;2022-12-01T11:37:14;42.90;;;15.35;;
73729;SDS011;62036;48.128;16.458;2022-12-01T11:39:41;40.70;;;15.48;;
73729;SDS011;62036;48.128;16.458;2022-12-01T11:47:33;38.88;;;14.82;;
73729;SDS011;62036;48.128;16.458;2022-12-01T11:50:00;39.13;;;14.77;;
73729;SDS011;62036;48.128;16.458;2022-12-01T11:52:33;40.40;;;14.35;;
73729;SDS011;62036;48.128;16.458;2022-12-01T11:57:36;43.80;;;15.40;;
73729;SDS011;62036;48.128;16.458;2022-12-01T12:00:13;36.67;;;14.75;;
73729;SDS011;62036;48.128;16.458;2022-12-01T12:02:50;41.53;;;14.85;;
73729;SDS011;62036;48.128;16.458;2022-12-01T12:08:05;40.58;;;15.07;;
73729;SDS011;62036;48.128;16.458;2022-12-01T12:42:00;33.33;;;12.95;;
73729;SDS011;62036;48.128;16.458;2022-12-01T12:57:03;39.05;;;15.40;;
73729;SDS011;62036;48.128;16.458;2022-12-01T12:59:33;38.65;;;14.77;;
73729;SDS011;62036;48.128;16.458;2022-12-01T13:02:11;35.80;;;14.93;;
73729;SDS011;62036;48.128;16.458;2022-12-01T13:04:42;39.67;;;13.68;;
73729;SDS011;62036;48.128;16.458;2022-12-01T13:12:09;35.20;;;12.15;;
73729;SDS011;62036;48.128;16.458;2022-12-01T13:14:41;35.90;;;14.32;;
73729;SDS011;62036;48.128;16.458;2022-12-01T13:19:54;36.67;;;13.68;;
73729;SDS011;62036;48.128;16.458;2022-12-01T13:22:20;30.23;;;12.82;;
73729;SDS011;62036;48.128;16.458;2022-12-01T13:24:48;33.35;;;14.35;;
73729;SDS011;62036;48.128;16.458;2022-12-01T13:27:16;36.75;;;13.98;;
73729;SDS011;62036;48.128;16.458;2022-12-01T13:29:47;31.83;;;12.75;;
73729;SDS011;62036;48.128;16.458;2022-12-01T13:32:47;34.72;;;12.88;;
73729;SDS011;62036;48.128;16.458;2022-12-01T13:35:52;36.45;;;12.95;;
73729;SDS011;62036;48.128;16.458;2022-12-01T13:37:55;36.80;;;14.18;;
73729;SDS011;62036;48.128;16.458;2022-12-01T13:40:26;37.80;;;13.50;;
73729;SDS011;62036;48.128;16.458;2022-12-01T13:42:54;33.28;;;12.73;;
73729;SDS011;62036;48.128;16.458;2022-12-01T13:45:21;42.08;;;14.77;;
73729;SDS011;62036;48.128;16.458;2022-12-01T13:56:03;29.70;;;12.77;;
73729;SDS011;62036;48.128;16.458;2022-12-01T14:06:37;36.10;;;14.02;;
73729;SDS011;62036;48.128;16.458;2022-12-01T14:11:39;29.35;;;12.70;;
73729;SDS011;62036;48.128;16.458;2022-12-01T14:16:44;31.77;;;12.85;;
73729;SDS011;62036;48.128;16.458;2022-12-01T14:21:54;32.53;;;13.45;;
73729;SDS011;62036;48.128;16.458;2022-12-01T14:24:29;34.47;;;12.65;;
73729;SDS011;62036;48.128;16.458;2022-12-01T14:26:56;34.05;;;11.82;;
73729;SDS011;62036;48.128;16.458;2022-12-01T14:34:23;33.30;;;13.18;;
73729;SDS011;62036;48.128;16.458;2022-12-01T14:36:56;34.50;;;13.48;;
73729;SDS011;62036;48.128;16.458;2022-12-01T14:39:23;37.95;;;14.65;;
73729;SDS011;62036;48.128;16.458;2022-12-01T14:44:22;35.72;;;13.50;;
73729;SDS011;62036;48.128;16.458;2022-12-01T14:49:22;32.42;;;12.40;;
73729;SDS011;62036;48.128;16.458;2022-12-01T14:51:52;37.10;;;13.82;;
73729;SDS011;62036;48.128;16.458;2022-12-01T14:54:21;32.65;;;13.25;;
73729;SDS011;62036;48.128;16.458;2022-12-01T14:56:50;36.53;;;12.85;;
73729;SDS011;62036;48.128;16.458;2022-12-01T14:59:18;34.13;;;12.20;;
73729;SDS011;62036;48.128;16.458;2022-12-01T15:01:49;32.58;;;12.45;;
73729;SDS011;62036;48.128;16.458;2022-12-01T15:04:16;29.25;;;12.05;;
73729;SDS011;62036;48.128;16.458;2022-12-01T15:06:42;31.65;;;12.43;;
73729;SDS011;62036;48.128;16.458;2022-12-01T15:09:11;31.98;;;12.13;;
73729;SDS011;62036;48.128;16.458;2022-12-01T15:11:43;32.67;;;12.60;;
73729;SDS011;62036;48.128;16.458;2022-12-01T15:14:19;27.63;;;11.77;;
73729;SDS011;62036;48.128;16.458;2022-12-01T15:16:45;31.88;;;11.90;;
73729;SDS011;62036;48.128;16.458;2022-12-01T15:19:21;30.30;;;12.70;;
73729;SDS011;62036;48.128;16.458;2022-12-01T15:21:47;32.33;;;12.40;;
73729;SDS011;62036;48.128;16.458;2022-12-01T15:26:45;34.00;;;11.93;;
73729;SDS011;62036;48.128;16.458;2022-12-01T15:31:41;34.80;;;12.35;;
73729;SDS011;62036;48.128;16.458;2022-12-01T15:34:11;34.60;;;11.77;;
73729;SDS011;62036;48.128;16.458;2022-12-01T15:36:39;36.05;;;12.57;;
73729;SDS011;62036;48.128;16.458;2022-12-01T15:39:05;28.38;;;12.55;;
73729;SDS011;62036;48.128;16.458;2022-12-01T15:41:35;36.38;;;12.68;;
73729;SDS011;62036;48.128;16.458;2022-12-01T15:44:03;32.35;;;13.00;;
73729;SDS011;62036;48.128;16.458;2022-12-01T15:46:32;31.65;;;12.38;;
73729;SDS011;62036;48.128;16.458;2022-12-01T15:49:14;33.70;;;13.45;;
73729;SDS011;62036;48.128;16.458;2022-12-01T15:51:41;38.22;;;12.38;;
73729;SDS011;62036;48.128;16.458;2022-12-01T15:54:11;32.75;;;12.50;;
73729;SDS011;62036;48.128;16.458;2022-12-01T15:56:40;32.92;;;12.55;;
73729;SDS011;62036;48.128;16.458;2022-12-01T15:59:07;32.03;;;13.27;;
73729;SDS011;62036;48.128;16.458;2022-12-01T16:01:34;34.42;;;13.07;;
73729;SDS011;62036;48.128;16.458;2022-12-01T16:04:04;37.78;;;14.13;;
73729;SDS011;62036;48.128;16.458;2022-12-01T16:06:32;33.90;;;13.88;;
73729;SDS011;62036;48.128;16.458;2022-12-01T16:09:03;33.28;;;13.38;;
73729;SDS011;62036;48.128;16.458;2022-12-01T16:11:30;36.55;;;14.00;;
73729;SDS011;62036;48.128;16.458;2022-12-01T16:16:26;38.08;;;12.80;;
73729;SDS011;62036;48.128;16.458;2022-12-01T16:19:00;33.60;;;13.48;;
73729;SDS011;62036;48.128;16.458;2022-12-01T16:21:27;35.42;;;15.00;;
73729;SDS011;62036;48.128;16.458;2022-12-01T16:23:59;37.63;;;13.32;;
73729;SDS011;62036;48.128;16.458;2022-12-01T16:26:25;36.25;;;12.25;;
73729;SDS011;62036;48.128;16.458;2022-12-01T16:28:51;35.63;;;14.10;;
73729;SDS011;62036;48.128;16.458;2022-12-01T16:31:18;33.47;;;12.98;;
73729;SDS011;62036;48.128;16.458;2022-12-01T16:33:44;40.45;;;15.00;;
73729;SDS011;62036;48.128;16.458;2022-12-01T16:36:10;32.47;;;13.23;;
73729;SDS011;62036;48.128;16.458;2022-12-01T16:38:38;34.55;;;12.98;;
73729;SDS011;62036;48.128;16.458;2022-12-01T16:41:15;31.40;;;13.10;;
73729;SDS011;62036;48.128;16.458;2022-12-01T16:43:41;33.60;;;13.57;;
73729;SDS011;62036;48.128;16.458;2022-12-01T16:46:10;35.65;;;14.38;;
73729;SDS011;62036;48.128;16.458;2022-12-01T16:48:37;38.00;;;14.95;;
73729;SDS011;62036;48.128;16.458;2022-12-01T16:51:05;36.75;;;13.13;;
73729;SDS011;62036;48.128;16.458;2022-12-01T16:53:31;28.58;;;12.48;;
73729;SDS011;62036;48.128;16.458;2022-12-01T16:55:59;37.10;;;13.05;;
73729;SDS011;62036;48.128;16.458;2022-12-01T16:58:26;32.03;;;12.52;;
73729;SDS011;62036;48.128;16.458;2022-12-01T17:00:52;30.38;;;12.55;;
73729;SDS011;62036;48.128;16.458;2022-12-01T17:03:19;35.28;;;13.23;;
73729;SDS011;62036;48.128;16.458;2022-12-01T17:05:45;30.60;;;12.38;;
73729;SDS011;62036;48.128;16.458;2022-12-01T17:08:12;29.40;;;12.95;;
73729;SDS011;62036;48.128;16.458;2022-12-01T17:10:39;35.85;;;14.30;;
73729;SDS011;62036;48.128;16.458;2022-12-01T17:13:05;28.65;;;13.45;;
73729;SDS011;62036;48.128;16.458;2022-12-01T17:15:31;33.28;;;12.38;;
73729;SDS011;62036;48.128;16.458;2022-12-01T17:17:57;35.63;;;13.05;;
73729;SDS011;62036;48.128;16.458;2022-12-01T17:20:23;32.95;;;13.43;;
73729;SDS011;62036;48.128;16.458;2022-12-01T17:25:15;28.27;;;12.38;;
73729;SDS011;62036;48.128;16.458;2022-12-01T17:27:41;31.08;;;12.50;;
73729;SDS011;62036;48.128;16.458;2022-12-01T17:30:08;33.10;;;13.95;;
73729;SDS011;62036;48.128;16.458;2022-12-01T17:32:34;28.73;;;12.77;;
73729;SDS011;62036;48.128;16.458;2022-12-01T17:35:00;29.13;;;13.07;;
73729;SDS011;62036;48.128;16.458;2022-12-01T17:37:26;26.00;;;11.50;;
73729;SDS011;62036;48.128;16.458;2022-12-01T17:39:52;37.42;;;12.68;;
73729;SDS011;62036;48.128;16.458;2022-12-01T17:44:44;34.30;;;13.35;;
73729;SDS011;62036;48.128;16.458;2022-12-01T17:49:36;25.90;;;10.50;;
73729;SDS011;62036;48.128;16.458;2022-12-01T17:54:28;33.58;;;13.10;;
73729;SDS011;62036;48.128;16.458;2022-12-01T17:56:54;29.67;;;13.40;;
73729;SDS011;62036;48.128;16.458;2022-12-01T18:01:46;30.88;;;12.35;;
73729;SDS011;62036;48.128;16.458;2022-12-01T18:04:12;30.70;;;11.98;;
73729;SDS011;62036;48.128;16.458;2022-12-01T18:09:05;26.30;;;11.00;;
73729;SDS011;62036;48.128;16.458;2022-12-01T18:11:31;26.75;;;11.13;;
73729;SDS011;62036;48.128;16.458;2022-12-01T18:13:57;39.30;;;13.57;;
73729;SDS011;62036;48.128;16.458;2022-12-01T18:18:49;33.10;;;11.55;;
73729;SDS011;62036;48.128;16.458;2022-12-01T18:21:16;32.05;;;13.55;;
73729;SDS011;62036;48.128;16.458;2022-12-01T18:23:47;31.13;;;11.98;;